sensor_id;sensor_type;location;lat;lon;timestamp;temperature;humidity
15158;DHT22;7679;48.796;9.056;2022-07-12T01:28:27;26.00;48.50
15158;DHT22;7679;48.796;9.056;2022-07-12T01:38:51;26.00;49.50
15158;DHT22;7679;48.796;9.056;2022-07-12T01:49:18;25.90;49.50
15158;DHT22;7679;48.796;9.056;2022-07-12T01:59:42;26.00;49.60
15158;DHT22;7679;48.796;9.056;2022-07-12T02:10:10;26.00;49.60
15158;DHT22;7679;48.796;9.056;2022-07-12T02:20:33;26.00;49.50
15158;DHT22;7679;48.796;9.056;2022-07-12T08:48:06;26.00;49.60
15158;DHT22;7679;48.796;9.056;2022-07-12T08:58:31;26.00;49.60
15158;DHT22;7679;48.796;9.056;2022-07-12T09:08:57;26.00;49.60
15158;DHT22;7679;48.796;9.056;2022-07-12T09:19:21;26.00;49.60
15158;DHT22;7679;48.796;9.056;2022-07-12T09:29:52;26.00;49.60
15158;DHT22;7679;48.796;9.056;2022-07-12T09:40:16;26.00;49.70
15158;DHT22;7679;48.796;9.056;2022-07-12T09:50:46;26.00;49.60
15158;DHT22;7679;48.796;9.056;2022-07-12T10:01:11;26.00;49.60
15158;DHT22;7679;48.796;9.056;2022-07-12T10:11:38;26.00;49.60
15158;DHT22;7679;48.796;9.056;2022-07-12T10:22:04;26.00;49.50
15158;DHT22;7679;48.796;9.056;2022-07-12T10:32:34;26.00;49.50
15158;DHT22;7679;48.796;9.056;2022-07-12T10:43:26;26.00;49.40
15158;DHT22;7679;48.796;9.056;2022-07-12T10:54:22;26.00;49.40
15158;DHT22;7679;48.796;9.056;2022-07-12T11:04:46;26.00;49.40
15158;DHT22;7679;48.796;9.056;2022-07-12T11:15:13;26.00;49.30
15158;DHT22;7679;48.796;9.056;2022-07-12T11:25:37;26.00;49.20
15158;DHT22;7679;48.796;9.056;2022-07-12T11:36:06;26.00;49.20
15158;DHT22;7679;48.796;9.056;2022-07-12T11:46:31;26.00;49.20
15158;DHT22;7679;48.796;9.056;2022-07-12T11:57:08;26.00;49.10
15158;DHT22;7679;48.796;9.056;2022-07-12T12:07:32;26.00;49.10
15158;DHT22;7679;48.796;9.056;2022-07-12T12:18:00;26.00;49.10
15158;DHT22;7679;48.796;9.056;2022-07-12T12:28:24;26.00;49.00
15158;DHT22;7679;48.796;9.056;2022-07-12T12:38:54;26.00;49.00
15158;DHT22;7679;48.796;9.056;2022-07-12T12:49:18;26.00;49.00
15158;DHT22;7679;48.796;9.056;2022-07-12T12:59:45;26.10;49.70
15158;DHT22;7679;48.796;9.056;2022-07-12T13:10:09;26.10;49.10
15158;DHT22;7679;48.796;9.056;2022-07-12T13:20:36;26.10;49.10
15158;DHT22;7679;48.796;9.056;2022-07-12T13:30:59;26.10;49.10
15158;DHT22;7679;48.796;9.056;2022-07-12T13:41:27;26.10;49.10
15158;DHT22;7679;48.796;9.056;2022-07-12T13:51:51;26.10;49.10
15158;DHT22;7679;48.796;9.056;2022-07-12T14:02:17;26.10;49.10
15158;DHT22;7679;48.796;9.056;2022-07-12T14:12:41;26.10;49.10
15158;DHT22;7679;48.796;9.056;2022-07-12T14:23:08;26.10;49.10
15158;DHT22;7679;48.796;9.056;2022-07-12T14:33:34;26.20;49.20
15158;DHT22;7679;48.796;9.056;2022-07-12T14:44:00;26.10;49.10
15158;DHT22;7679;48.796;9.056;2022-07-12T14:54:27;26.10;49.10
15158;DHT22;7679;48.796;9.056;2022-07-12T15:04:54;26.20;49.20
15158;DHT22;7679;48.796;9.056;2022-07-12T15:15:18;26.20;49.20
15158;DHT22;7679;48.796;9.056;2022-07-12T15:25:44;26.10;49.20
15158;DHT22;7679;48.796;9.056;2022-07-12T15:36:08;26.10;49.10
15158;DHT22;7679;48.796;9.056;2022-07-12T15:46:35;26.20;49.20
15158;DHT22;7679;48.796;9.056;2022-07-12T15:56:59;26.20;49.20
15158;DHT22;7679;48.796;9.056;2022-07-12T16:07:27;26.20;49.20
15158;DHT22;7679;48.796;9.056;2022-07-12T16:17:51;26.10;49.10
15158;DHT22;7679;48.796;9.056;2022-07-12T16:28:18;26.20;49.20
15158;DHT22;7679;48.796;9.056;2022-07-12T16:38:42;26.10;49.10
15158;DHT22;7679;48.796;9.056;2022-07-12T16:49:09;26.20;49.20
15158;DHT22;7679;48.796;9.056;2022-07-12T16:59:33;26.20;49.20
15158;DHT22;7679;48.796;9.056;2022-07-12T17:10:00;26.10;49.20
15158;DHT22;7679;48.796;9.056;2022-07-12T17:20:24;26.10;49.20
15158;DHT22;7679;48.796;9.056;2022-07-12T17:30:50;26.20;49.20
15158;DHT22;7679;48.796;9.056;2022-07-12T17:41:14;26.20;49.20
15158;DHT22;7679;48.796;9.056;2022-07-12T17:51:41;26.20;49.30
15158;DHT22;7679;48.796;9.056;2022-07-12T18:02:05;26.10;49.10
15158;DHT22;7679;48.796;9.056;2022-07-12T18:12:32;26.10;49.10
15158;DHT22;7679;48.796;9.056;2022-07-12T18:23:08;26.10;49.50
15158;DHT22;7679;48.796;9.056;2022-07-12T18:33:36;26.10;49.10
15158;DHT22;7679;48.796;9.056;2022-07-12T18:43:59;26.10;49.10
15158;DHT22;7679;48.796;9.056;2022-07-12T18:54:26;26.20;49.20
15158;DHT22;7679;48.796;9.056;2022-07-12T19:04:50;26.10;49.20
15158;DHT22;7679;48.796;9.056;2022-07-12T19:15:17;26.10;49.20
15158;DHT22;7679;48.796;9.056;2022-07-12T19:25:40;26.10;49.20
15158;DHT22;7679;48.796;9.056;2022-07-12T19:36:08;26.10;49.20
15158;DHT22;7679;48.796;9.056;2022-07-12T19:46:32;26.20;49.40
15158;DHT22;7679;48.796;9.056;2022-07-12T19:56:59;26.10;49.20
15158;DHT22;7679;48.796;9.056;2022-07-12T20:07:22;26.10;49.20
15158;DHT22;7679;48.796;9.056;2022-07-12T20:17:49;26.10;49.30
15158;DHT22;7679;48.796;9.056;2022-07-12T20:28:13;26.10;49.30
15158;DHT22;7679;48.796;9.056;2022-07-12T20:38:40;26.10;49.30
15158;DHT22;7679;48.796;9.056;2022-07-12T20:49:03;26.20;49.40
15158;DHT22;7679;48.796;9.056;2022-07-12T20:59:30;26.10;49.30
15158;DHT22;7679;48.796;9.056;2022-07-12T21:09:54;26.10;49.30
15158;DHT22;7679;48.796;9.056;2022-07-12T21:20:20;26.10;49.30
15158;DHT22;7679;48.796;9.056;2022-07-12T21:30:45;26.10;49.40
15158;DHT22;7679;48.796;9.056;2022-07-12T21:41:11;26.10;49.30
15158;DHT22;7679;48.796;9.056;2022-07-12T21:51:35;26.10;49.40
15158;DHT22;7679;48.796;9.056;2022-07-12T22:02:02;26.10;49.30
15158;DHT22;7679;48.796;9.056;2022-07-12T22:12:26;26.10;49.30
15158;DHT22;7679;48.796;9.056;2022-07-12T22:22:52;26.10;49.30
15158;DHT22;7679;48.796;9.056;2022-07-12T22:33:16;26.10;49.30
15158;DHT22;7679;48.796;9.056;2022-07-12T22:43:42;26.10;49.40
15158;DHT22;7679;48.796;9.056;2022-07-12T22:54:06;26.10;49.30
15158;DHT22;7679;48.796;9.056;2022-07-12T23:04:33;26.10;49.40
15158;DHT22;7679;48.796;9.056;2022-07-12T23:14:56;26.10;49.40
15158;DHT22;7679;48.796;9.056;2022-07-12T23:25:25;26.10;49.40
15158;DHT22;7679;48.796;9.056;2022-07-12T23:35:49;26.10;49.40
15158;DHT22;7679;48.796;9.056;2022-07-12T23:46:15;26.10;49.40
15158;DHT22;7679;48.796;9.056;2022-07-12T23:56:39;26.10;49.40
